createdAt,value
2023-04-27T00:02:49.026Z,8.04
2023-04-27T00:05:51.022Z,8.05
2023-04-27T00:08:52.960Z,8.05
2023-04-27T00:11:55.085Z,8.05
2023-04-27T00:14:56.912Z,8.06
2023-04-27T00:17:58.817Z,8.06
2023-04-27T00:21:00.815Z,8.07
2023-04-27T00:24:02.531Z,8.06
2023-04-27T00:27:04.462Z,8.06
2023-04-27T00:30:07.597Z,8.04
2023-04-27T00:33:09.287Z,8.03
2023-04-27T00:36:11.165Z,8.03
2023-04-27T00:39:13.366Z,8.02
2023-04-27T00:42:18.898Z,8.02
2023-04-27T00:45:20.701Z,8.01
2023-04-27T00:48:22.615Z,8.01
2023-04-27T00:51:27.567Z,8.01
2023-04-27T00:54:31.049Z,8.00
2023-04-27T00:57:33.247Z,8.00
2023-04-27T01:00:39.606Z,7.99
2023-04-27T01:03:41.613Z,7.98
2023-04-27T01:06:43.600Z,7.97
2023-04-27T01:09:46.052Z,7.95
2023-04-27T01:12:47.761Z,7.93
2023-04-27T01:15:49.521Z,7.93
2023-04-27T01:18:51.487Z,7.92
2023-04-27T01:21:53.209Z,7.89
2023-04-27T01:24:54.986Z,7.87
2023-04-27T01:27:56.680Z,7.85
2023-04-27T01:30:58.432Z,7.83
2023-04-27T01:34:00.750Z,7.79
2023-04-27T01:37:02.478Z,7.75
2023-04-27T01:40:06.008Z,7.72
2023-04-27T01:43:07.704Z,7.69
2023-04-27T01:46:12.589Z,7.68
2023-04-27T01:49:14.549Z,7.67
2023-04-27T01:52:16.447Z,7.65
2023-04-27T01:55:18.391Z,7.63
2023-04-27T01:58:20.554Z,7.62
2023-04-27T02:01:23.120Z,7.62
2023-04-27T02:04:25.299Z,7.61
2023-04-27T02:07:27.068Z,7.61
2023-04-27T02:10:28.801Z,7.59
2023-04-27T02:13:30.607Z,7.58
2023-04-27T02:16:32.321Z,7.57
2023-04-27T02:19:34.028Z,7.56
2023-04-27T02:22:36.350Z,7.54
2023-04-27T02:25:38.504Z,7.53
2023-04-27T02:28:40.302Z,7.50
2023-04-27T02:31:42.638Z,7.46
2023-04-27T02:34:44.619Z,7.44
2023-04-27T02:37:46.416Z,7.41
2023-04-27T02:40:54.426Z,7.39
2023-04-27T02:43:56.071Z,7.38
2023-04-27T02:46:59.362Z,7.34
2023-04-27T02:50:01.460Z,7.30
2023-04-27T02:53:03.463Z,7.27
2023-04-27T02:56:05.447Z,7.23
2023-04-27T02:59:07.464Z,7.18
2023-04-27T03:02:09.310Z,7.15
2023-04-27T03:05:11.048Z,7.10
2023-04-27T03:08:12.776Z,7.07
2023-04-27T03:11:14.509Z,7.04
2023-04-27T03:14:16.163Z,7.00
2023-04-27T03:17:17.766Z,6.96
2023-04-27T03:20:22.700Z,6.92
2023-04-27T03:23:24.380Z,6.89
2023-04-27T03:26:27.141Z,6.83
2023-04-27T03:29:28.828Z,6.81
2023-04-27T03:32:30.621Z,6.77
2023-04-27T03:35:32.338Z,6.74
2023-04-27T03:38:34.998Z,6.73
2023-04-27T03:41:36.885Z,6.73
2023-04-27T03:44:39.056Z,6.73
2023-04-27T03:47:40.849Z,6.73
2023-04-27T03:50:43.249Z,6.75
2023-04-27T03:53:45.389Z,6.79
2023-04-27T03:56:47.231Z,6.82
2023-04-27T03:59:49.656Z,6.83
2023-04-27T04:02:51.693Z,6.85
2023-04-27T04:05:53.548Z,6.85
2023-04-27T04:08:55.325Z,6.86
2023-04-27T04:11:57.455Z,6.87
2023-04-27T04:14:59.319Z,6.87
2023-04-27T04:18:01.454Z,6.88
2023-04-27T04:21:03.371Z,6.88
2023-04-27T04:24:05.506Z,6.88
2023-04-27T04:27:07.879Z,6.90
2023-04-27T04:30:10.865Z,6.92
2023-04-27T04:33:13.141Z,6.95
2023-04-27T04:36:15.775Z,6.98
2023-04-27T04:39:21.316Z,7.01
2023-04-27T04:42:23.180Z,7.04
2023-04-27T04:45:25.373Z,7.08
2023-04-27T04:48:27.395Z,7.12
2023-04-27T04:51:30.180Z,7.17
2023-04-27T04:54:31.919Z,7.19
2023-04-27T04:57:33.593Z,7.25
2023-04-27T05:00:35.297Z,7.32
2023-04-27T05:03:37.267Z,7.39
2023-04-27T05:06:39.177Z,7.49
2023-04-27T05:09:40.921Z,7.59
2023-04-27T05:12:43.900Z,7.69
2023-04-27T05:15:46.032Z,7.81
2023-04-27T05:18:47.815Z,7.92
2023-04-27T05:21:49.675Z,8.03
2023-04-27T05:24:51.345Z,8.13
2023-04-27T05:27:53.009Z,8.23
2023-04-27T05:30:54.748Z,8.34
2023-04-27T05:33:56.386Z,8.46
2023-04-27T05:36:58.051Z,8.54
2023-04-27T05:39:59.735Z,8.64
2023-04-27T05:43:04.656Z,8.72
2023-04-27T05:46:06.453Z,8.82
2023-04-27T05:49:08.328Z,8.90
2023-04-27T05:52:10.141Z,8.99
2023-04-27T05:55:11.911Z,9.10
2023-04-27T05:58:13.658Z,9.19
2023-04-27T06:01:15.531Z,9.29
2023-04-27T06:04:17.402Z,9.38
2023-04-27T06:07:19.629Z,9.47
2023-04-27T06:10:21.424Z,9.57
2023-04-27T06:13:23.240Z,9.65
2023-04-27T06:16:25.162Z,9.77
2023-04-27T06:19:27.406Z,9.87
2023-04-27T06:22:29.104Z,9.98
2023-04-27T06:25:30.853Z,10.05
2023-04-27T06:28:33.293Z,10.14
2023-04-27T06:31:35.187Z,10.24
2023-04-27T06:34:36.988Z,10.34
2023-04-27T06:37:38.814Z,10.45
2023-04-27T06:40:40.516Z,10.53
2023-04-27T06:43:42.340Z,10.64
2023-04-27T06:46:44.062Z,10.74
2023-04-27T06:49:46.598Z,10.83
2023-04-27T06:52:49.678Z,10.93
2023-04-27T06:55:51.456Z,11.03
2023-04-27T06:58:53.642Z,11.13
2023-04-27T07:01:55.465Z,11.22
2023-04-27T07:04:58.242Z,11.34
2023-04-27T07:08:03.340Z,11.47
2023-04-27T07:11:07.127Z,11.60
2023-04-27T07:14:10.262Z,11.73
2023-04-27T07:17:12.809Z,11.85
2023-04-27T07:20:18.164Z,11.94
2023-04-27T07:23:20.036Z,12.07
2023-04-27T07:26:24.279Z,12.31
2023-04-27T07:29:27.700Z,12.44
2023-04-27T07:32:30.330Z,12.53
2023-04-27T07:35:33.258Z,12.66
2023-04-27T07:38:35.042Z,12.80
2023-04-27T07:41:37.162Z,12.94
2023-04-27T07:44:40.059Z,12.99
2023-04-27T07:47:41.883Z,12.81
2023-04-27T07:50:43.786Z,12.55
2023-04-27T07:53:47.694Z,12.31
2023-04-27T07:56:49.724Z,12.10
2023-04-27T07:59:51.663Z,11.94
2023-04-27T08:02:54.616Z,11.81
2023-04-27T08:05:56.721Z,11.67
2023-04-27T08:09:00.260Z,11.59
2023-04-27T08:12:02.296Z,11.84
2023-04-27T08:15:07.668Z,12.11
2023-04-27T08:18:10.364Z,12.13
2023-04-27T08:21:12.432Z,12.06
2023-04-27T08:24:14.186Z,11.93
2023-04-27T08:27:16.388Z,11.82
2023-04-27T08:30:19.041Z,11.66
2023-04-27T08:33:20.921Z,11.53
2023-04-27T08:36:25.816Z,11.46
2023-04-27T08:39:27.731Z,11.41
2023-04-27T08:42:30.113Z,11.34
2023-04-27T08:45:32.394Z,11.28
2023-04-27T08:48:34.686Z,11.24
2023-04-27T08:51:36.709Z,11.20
2023-04-27T08:54:38.405Z,11.16
2023-04-27T08:57:40.744Z,11.16
2023-04-27T09:00:45.406Z,11.13
2023-04-27T09:03:47.368Z,11.11
2023-04-27T09:06:49.216Z,11.11
2023-04-27T09:10:02.035Z,11.08
2023-04-27T09:13:03.765Z,11.07
2023-04-27T09:16:06.294Z,11.13
2023-04-27T09:19:08.265Z,11.46
2023-04-27T09:22:13.057Z,11.85
2023-04-27T09:25:28.373Z,12.15
2023-04-27T09:28:31.699Z,12.29
2023-04-27T09:31:35.364Z,12.35
2023-04-27T09:34:39.368Z,12.35
2023-04-27T09:37:41.239Z,12.32
2023-04-27T09:40:43.231Z,12.28
2023-04-27T09:43:46.645Z,12.25
2023-04-27T09:46:48.681Z,12.22
2023-04-27T09:49:51.500Z,12.20
2023-04-27T09:52:54.095Z,12.21
2023-04-27T09:56:01.903Z,12.41
2023-04-27T09:59:09.524Z,12.46
2023-04-27T10:02:24.642Z,12.41
2023-04-27T10:05:43.244Z,12.32
2023-04-27T10:08:45.268Z,12.22
2023-04-27T10:11:47.288Z,12.16
2023-04-27T10:14:49.386Z,12.06
2023-04-27T10:17:58.226Z,11.99
2023-04-27T10:21:12.360Z,11.97
2023-04-27T10:24:14.142Z,11.98
2023-04-27T10:27:23.485Z,11.98
2023-04-27T10:30:31.395Z,11.98
2023-04-27T10:33:43.518Z,11.95
2023-04-27T10:36:45.634Z,11.92
2023-04-27T10:39:49.403Z,11.90
2023-04-27T10:42:51.843Z,11.87
2023-04-27T10:45:54.834Z,11.84
2023-04-27T10:48:57.694Z,11.82
2023-04-27T10:55:23.375Z,11.80
2023-04-27T10:58:29.862Z,11.80
2023-04-27T11:01:37.170Z,11.81
2023-04-27T11:04:40.824Z,11.84
2023-04-27T11:07:47.321Z,11.88
2023-04-27T11:10:52.030Z,11.98
2023-04-27T11:13:55.330Z,12.10
2023-04-27T11:16:58.193Z,12.27
2023-04-27T11:20:00.276Z,12.33
2023-04-27T11:23:02.391Z,12.34
2023-04-27T11:26:18.804Z,12.31
2023-04-27T11:29:20.915Z,12.25
2023-04-27T11:32:24.871Z,12.21
2023-04-27T11:35:34.004Z,12.21
2023-04-27T11:38:35.843Z,12.24
2023-04-27T11:41:38.694Z,12.29
2023-04-27T11:44:40.752Z,12.27
2023-04-27T11:47:46.810Z,12.23
2023-04-27T11:50:49.710Z,12.15
2023-04-27T11:53:52.164Z,12.08
2023-04-27T11:57:04.763Z,12.00
2023-04-27T12:00:10.547Z,11.95
2023-04-27T12:03:15.355Z,11.91
2023-04-27T12:09:29.919Z,11.88
2023-04-27T12:12:32.893Z,11.87
2023-04-27T12:15:34.633Z,11.91
2023-04-27T12:18:36.447Z,11.95
2023-04-27T12:21:39.282Z,12.01
2023-04-27T12:24:41.005Z,12.06
2023-04-27T12:27:43.284Z,12.08
2023-04-27T12:30:45.407Z,12.09
2023-04-27T12:33:48.630Z,12.08
2023-04-27T12:36:50.621Z,12.05
2023-04-27T12:39:52.548Z,12.02
2023-04-27T12:42:54.634Z,11.96
2023-04-27T12:45:56.939Z,11.90
2023-04-27T12:48:58.717Z,11.83
2023-04-27T12:52:00.700Z,11.78
2023-04-27T12:55:02.499Z,11.72
2023-04-27T12:58:04.538Z,11.66
2023-04-27T13:01:13.914Z,11.61
2023-04-27T13:04:19.987Z,11.57
2023-04-27T13:07:22.464Z,11.56
2023-04-27T13:10:24.589Z,11.56
2023-04-27T13:13:26.385Z,11.57
2023-04-27T13:16:28.189Z,11.58
2023-04-27T13:19:30.598Z,11.60
2023-04-27T13:22:32.566Z,11.61
2023-04-27T13:25:34.595Z,11.66
2023-04-27T13:28:36.379Z,11.70
2023-04-27T13:31:38.163Z,11.73
2023-04-27T13:34:40.564Z,11.73
2023-04-27T13:37:42.348Z,11.73
2023-04-27T13:40:44.402Z,11.71
2023-04-27T13:43:46.244Z,11.68
2023-04-27T13:46:47.962Z,11.64
2023-04-27T13:49:49.897Z,11.60
2023-04-27T13:52:51.814Z,11.58
2023-04-27T13:55:54.803Z,11.55
2023-04-27T13:58:56.613Z,11.55
2023-04-27T14:01:58.539Z,11.58
2023-04-27T14:05:00.390Z,11.59
2023-04-27T14:08:02.528Z,11.61
2023-04-27T14:11:05.416Z,11.63
2023-04-27T14:14:07.630Z,11.63
2023-04-27T14:17:09.495Z,11.61
2023-04-27T14:20:19.955Z,11.59
2023-04-27T14:23:21.815Z,11.57
2023-04-27T14:26:23.749Z,11.57
2023-04-27T14:29:26.064Z,11.59
2023-04-27T14:32:27.758Z,11.70
2023-04-27T14:35:29.779Z,11.86
2023-04-27T14:38:33.894Z,12.03
2023-04-27T14:41:36.992Z,12.18
2023-04-27T14:44:38.818Z,12.35
2023-04-27T14:47:40.665Z,12.42
2023-04-27T14:50:42.564Z,12.47
2023-04-27T14:53:44.645Z,12.50
2023-04-27T14:56:47.904Z,12.50
2023-04-27T14:59:51.647Z,12.49
2023-04-27T15:02:54.378Z,12.46
2023-04-27T15:05:56.200Z,12.42
2023-04-27T15:08:58.004Z,12.39
2023-04-27T15:12:01.325Z,12.40
2023-04-27T15:15:03.183Z,12.41
2023-04-27T15:18:05.044Z,12.37
2023-04-27T15:21:06.755Z,12.30
2023-04-27T15:24:10.446Z,12.29
2023-04-27T15:27:19.122Z,12.28
2023-04-27T15:30:22.094Z,12.25
2023-04-27T15:33:36.838Z,12.22
2023-04-27T15:36:38.615Z,12.19
2023-04-27T15:39:41.409Z,12.16
2023-04-27T15:42:43.097Z,12.13
2023-04-27T15:45:45.053Z,12.11
2023-04-27T15:48:48.727Z,12.08
2023-04-27T15:51:50.754Z,12.05
2023-04-27T15:54:55.532Z,12.02
2023-04-27T15:57:57.404Z,12.00
2023-04-27T16:00:59.842Z,11.98
2023-04-27T16:04:03.413Z,11.95
2023-04-27T16:07:08.017Z,11.93
2023-04-27T16:10:11.058Z,11.88
2023-04-27T16:13:12.884Z,11.83
2023-04-27T16:16:14.651Z,11.79
2023-04-27T16:19:18.620Z,11.75
2023-04-27T16:22:21.505Z,11.72
2023-04-27T16:25:23.246Z,11.69
2023-04-27T16:28:24.960Z,11.67
2023-04-27T16:31:27.386Z,11.65
2023-04-27T16:34:29.247Z,11.61
2023-04-27T16:37:32.268Z,11.58
2023-04-27T16:40:34.054Z,11.55
2023-04-27T16:43:36.299Z,11.53
2023-04-27T16:46:38.472Z,11.50
2023-04-27T16:49:44.204Z,11.46
2023-04-27T16:52:49.465Z,11.42
2023-04-27T16:55:51.335Z,11.38
2023-04-27T16:58:53.539Z,11.35
2023-04-27T17:01:55.810Z,11.32
2023-04-27T17:04:58.853Z,11.27
2023-04-27T17:08:01.233Z,11.23
2023-04-27T17:11:09.770Z,11.20
2023-04-27T17:14:13.270Z,11.18
2023-04-27T17:17:15.203Z,11.15
2023-04-27T17:20:17.069Z,11.13
2023-04-27T17:23:19.155Z,11.10
2023-04-27T17:26:21.399Z,11.08
2023-04-27T17:29:23.345Z,11.05
2023-04-27T17:32:28.601Z,11.00
2023-04-27T17:35:30.783Z,10.95
2023-04-27T17:38:32.487Z,10.91
2023-04-27T17:41:36.784Z,10.85
2023-04-27T17:44:40.537Z,10.81
2023-04-27T17:47:42.245Z,10.74
2023-04-27T17:50:43.941Z,10.69
2023-04-27T17:53:45.617Z,10.64
2023-04-27T17:56:47.291Z,10.56
2023-04-27T17:59:49.760Z,10.47
2023-04-27T18:02:51.575Z,10.35
2023-04-27T18:05:53.416Z,10.23
2023-04-27T18:08:55.488Z,10.13
2023-04-27T18:11:58.137Z,10.03
2023-04-27T18:15:03.395Z,9.95
2023-04-27T18:18:06.547Z,9.85
2023-04-27T18:21:08.309Z,9.76
2023-04-27T18:24:10.228Z,9.68
2023-04-27T18:27:12.001Z,9.60
2023-04-27T18:30:13.805Z,9.56
2023-04-27T18:33:17.194Z,9.50
2023-04-27T18:36:19.241Z,9.44
2023-04-27T18:39:21.448Z,9.36
2023-04-27T18:42:23.181Z,9.30
2023-04-27T18:45:24.955Z,9.24
2023-04-27T18:48:26.674Z,9.19
2023-04-27T18:51:28.658Z,9.14
2023-04-27T18:54:30.346Z,9.08
2023-04-27T18:57:33.041Z,9.04
2023-04-27T19:00:37.384Z,9.01
2023-04-27T19:03:39.289Z,8.99
2023-04-27T19:06:41.460Z,8.97
2023-04-27T19:09:43.141Z,8.95
2023-04-27T19:12:44.872Z,8.95
2023-04-27T19:15:46.593Z,8.94
2023-04-27T19:18:48.312Z,8.93
2023-04-27T19:21:50.179Z,8.92
2023-04-27T19:24:51.852Z,8.90
2023-04-27T19:27:54.898Z,8.87
2023-04-27T19:30:56.622Z,8.85
2023-04-27T19:34:04.128Z,8.83
2023-04-27T19:37:06.248Z,8.80
2023-04-27T19:40:08.708Z,8.77
2023-04-27T19:43:11.319Z,8.75
2023-04-27T19:46:13.004Z,8.74
2023-04-27T19:49:15.339Z,8.71
2023-04-27T19:52:17.274Z,8.69
2023-04-27T19:55:18.956Z,8.67
2023-04-27T19:58:20.966Z,8.65
2023-04-27T20:01:22.816Z,8.65
2023-04-27T20:04:25.093Z,8.64
2023-04-27T20:07:27.054Z,8.63
2023-04-27T20:10:28.761Z,8.61
2023-04-27T20:13:30.875Z,8.58
2023-04-27T20:16:32.737Z,8.55
2023-04-27T20:19:34.401Z,8.54
2023-04-27T20:22:37.140Z,8.54
2023-04-27T20:25:38.774Z,8.54
2023-04-27T20:28:40.529Z,8.53
2023-04-27T20:31:42.324Z,8.54
2023-04-27T20:34:44.056Z,8.55
2023-04-27T20:37:46.522Z,8.55
2023-04-27T20:40:49.627Z,8.55
2023-04-27T20:43:51.774Z,8.57
2023-04-27T20:46:54.600Z,8.56
2023-04-27T20:49:56.412Z,8.54
2023-04-27T20:52:58.109Z,8.53
2023-04-27T20:55:59.775Z,8.51
2023-04-27T20:59:01.573Z,8.49
2023-04-27T21:02:03.325Z,8.46
2023-04-27T21:05:05.237Z,8.43
2023-04-27T21:08:06.972Z,8.41
2023-04-27T21:11:09.010Z,8.39
2023-04-27T21:14:10.803Z,8.36
2023-04-27T21:17:14.549Z,8.27
2023-04-27T21:20:16.491Z,8.23
2023-04-27T21:23:19.144Z,8.17
2023-04-27T21:26:20.857Z,8.10
2023-04-27T21:29:22.825Z,8.05
2023-04-27T21:32:24.556Z,8.01
2023-04-27T21:35:26.454Z,8.00
2023-04-27T21:38:28.183Z,7.98
2023-04-27T21:41:29.817Z,7.99
2023-04-27T21:44:31.557Z,8.00
2023-04-27T21:47:33.308Z,8.02
2023-04-27T21:50:35.186Z,8.05
2023-04-27T21:53:37.010Z,8.08
2023-04-27T21:56:38.757Z,8.09
2023-04-27T21:59:40.622Z,8.11
2023-04-27T22:02:42.748Z,8.13
2023-04-27T22:05:44.711Z,8.15
2023-04-27T22:08:46.617Z,8.16
2023-04-27T22:11:48.257Z,8.17
2023-04-27T22:14:49.962Z,8.18
2023-04-27T22:17:53.139Z,8.21
2023-04-27T22:20:54.916Z,8.21
2023-04-27T22:23:56.857Z,8.22
2023-04-27T22:26:58.607Z,8.23
2023-04-27T22:30:00.377Z,8.25
2023-04-27T22:33:02.526Z,8.26
2023-04-27T22:36:05.231Z,8.26
2023-04-27T22:39:07.545Z,8.27
2023-04-27T22:42:09.160Z,8.28
2023-04-27T22:45:11.315Z,8.29
2023-04-27T22:48:12.991Z,8.30
2023-04-27T22:51:14.869Z,8.30
2023-04-27T22:54:16.733Z,8.32
2023-04-27T22:57:18.576Z,8.32
2023-04-27T23:00:20.496Z,8.32
2023-04-27T23:03:22.433Z,8.33
2023-04-27T23:06:24.320Z,8.33
2023-04-27T23:09:26.390Z,8.34
2023-04-27T23:12:29.583Z,8.35
2023-04-27T23:15:31.324Z,8.35
2023-04-27T23:18:33.265Z,8.36
2023-04-27T23:21:35.012Z,8.35
2023-04-27T23:24:36.708Z,8.35
2023-04-27T23:27:38.539Z,8.34
2023-04-27T23:30:40.364Z,8.34
2023-04-27T23:33:42.075Z,8.33
2023-04-27T23:36:44.013Z,8.33
2023-04-27T23:39:45.833Z,8.32
2023-04-27T23:42:48.560Z,8.31
2023-04-27T23:45:52.149Z,8.30
2023-04-27T23:48:53.906Z,8.29
2023-04-27T23:51:55.672Z,8.28
2023-04-27T23:54:57.718Z,8.27
2023-04-27T23:57:59.400Z,8.25
